sensor_id;sensor_type;location;lat;lon;timestamp;temperature;humidity
2723;DHT22;1369;53.216;10.396;2023-07-29T00:00:47;18.60;99.90
2723;DHT22;1369;53.216;10.396;2023-07-29T00:03:12;18.60;99.90
2723;DHT22;1369;53.216;10.396;2023-07-29T00:05:38;18.50;99.90
2723;DHT22;1369;53.216;10.396;2023-07-29T00:08:04;18.50;99.90
2723;DHT22;1369;53.216;10.396;2023-07-29T00:10:31;18.40;99.90
2723;DHT22;1369;53.216;10.396;2023-07-29T00:12:57;18.30;99.90
2723;DHT22;1369;53.216;10.396;2023-07-29T00:15:23;18.30;99.90
2723;DHT22;1369;53.216;10.396;2023-07-29T00:17:48;18.20;99.90
2723;DHT22;1369;53.216;10.396;2023-07-29T00:20:14;18.10;99.90
2723;DHT22;1369;53.216;10.396;2023-07-29T00:22:40;18.00;99.90
2723;DHT22;1369;53.216;10.396;2023-07-29T00:25:06;18.00;99.90
2723;DHT22;1369;53.216;10.396;2023-07-29T00:27:32;17.90;99.90
2723;DHT22;1369;53.216;10.396;2023-07-29T00:29:57;17.90;99.90
2723;DHT22;1369;53.216;10.396;2023-07-29T00:32:23;17.90;99.90
2723;DHT22;1369;53.216;10.396;2023-07-29T00:34:48;17.80;99.90
2723;DHT22;1369;53.216;10.396;2023-07-29T00:37:14;17.80;99.90
2723;DHT22;1369;53.216;10.396;2023-07-29T00:39:39;17.80;99.90
2723;DHT22;1369;53.216;10.396;2023-07-29T00:42:06;17.80;99.90
2723;DHT22;1369;53.216;10.396;2023-07-29T00:44:31;17.80;99.90
2723;DHT22;1369;53.216;10.396;2023-07-29T00:46:57;17.80;99.90
2723;DHT22;1369;53.216;10.396;2023-07-29T00:49:24;17.70;99.90
2723;DHT22;1369;53.216;10.396;2023-07-29T00:51:50;17.70;99.90
2723;DHT22;1369;53.216;10.396;2023-07-29T00:54:15;17.70;99.90
2723;DHT22;1369;53.216;10.396;2023-07-29T00:56:41;17.60;99.90
2723;DHT22;1369;53.216;10.396;2023-07-29T00:59:07;17.60;99.90
2723;DHT22;1369;53.216;10.396;2023-07-29T01:01:33;17.50;99.90
2723;DHT22;1369;53.216;10.396;2023-07-29T01:03:59;17.60;99.90
2723;DHT22;1369;53.216;10.396;2023-07-29T01:12:07;17.70;99.90
2723;DHT22;1369;53.216;10.396;2023-07-29T01:14:47;17.80;99.90
2723;DHT22;1369;53.216;10.396;2023-07-29T01:17:23;17.80;99.90
2723;DHT22;1369;53.216;10.396;2023-07-29T01:20:02;17.80;99.90
2723;DHT22;1369;53.216;10.396;2023-07-29T01:22:33;17.90;99.90
2723;DHT22;1369;53.216;10.396;2023-07-29T01:24:59;17.90;99.90
2723;DHT22;1369;53.216;10.396;2023-07-29T01:27:25;17.90;99.90
2723;DHT22;1369;53.216;10.396;2023-07-29T01:29:52;17.90;99.90
2723;DHT22;1369;53.216;10.396;2023-07-29T01:32:26;18.00;99.90
2723;DHT22;1369;53.216;10.396;2023-07-29T01:35:00;18.00;99.90
2723;DHT22;1369;53.216;10.396;2023-07-29T01:37:30;18.00;99.90
2723;DHT22;1369;53.216;10.396;2023-07-29T01:39:58;18.00;99.90
2723;DHT22;1369;53.216;10.396;2023-07-29T01:42:25;18.00;99.90
2723;DHT22;1369;53.216;10.396;2023-07-29T01:44:51;18.00;99.90
2723;DHT22;1369;53.216;10.396;2023-07-29T01:47:17;17.90;99.90
2723;DHT22;1369;53.216;10.396;2023-07-29T01:49:42;17.90;99.90
2723;DHT22;1369;53.216;10.396;2023-07-29T01:52:08;17.90;99.90
2723;DHT22;1369;53.216;10.396;2023-07-29T01:54:33;17.90;99.90
2723;DHT22;1369;53.216;10.396;2023-07-29T01:56:59;17.90;99.90
2723;DHT22;1369;53.216;10.396;2023-07-29T01:59:25;17.90;99.90
2723;DHT22;1369;53.216;10.396;2023-07-29T02:01:50;17.90;99.90
2723;DHT22;1369;53.216;10.396;2023-07-29T02:04:16;17.90;99.90
2723;DHT22;1369;53.216;10.396;2023-07-29T02:06:41;17.90;99.90
2723;DHT22;1369;53.216;10.396;2023-07-29T02:09:07;17.90;99.90
2723;DHT22;1369;53.216;10.396;2023-07-29T02:11:33;17.90;99.90
2723;DHT22;1369;53.216;10.396;2023-07-29T02:13:58;17.90;99.90
2723;DHT22;1369;53.216;10.396;2023-07-29T02:16:24;17.90;99.90
2723;DHT22;1369;53.216;10.396;2023-07-29T02:18:49;17.90;99.90
2723;DHT22;1369;53.216;10.396;2023-07-29T02:21:15;17.80;99.90
2723;DHT22;1369;53.216;10.396;2023-07-29T02:23:41;17.80;99.90
2723;DHT22;1369;53.216;10.396;2023-07-29T02:26:07;17.80;99.90
2723;DHT22;1369;53.216;10.396;2023-07-29T02:28:32;17.70;99.90
2723;DHT22;1369;53.216;10.396;2023-07-29T02:31:19;17.70;99.90
2723;DHT22;1369;53.216;10.396;2023-07-29T02:33:45;17.60;99.90
2723;DHT22;1369;53.216;10.396;2023-07-29T02:36:12;17.60;99.90
2723;DHT22;1369;53.216;10.396;2023-07-29T02:38:38;17.50;99.90
2723;DHT22;1369;53.216;10.396;2023-07-29T02:41:04;17.40;99.90
2723;DHT22;1369;53.216;10.396;2023-07-29T02:43:29;17.40;99.90
2723;DHT22;1369;53.216;10.396;2023-07-29T02:45:55;17.40;99.90
2723;DHT22;1369;53.216;10.396;2023-07-29T02:48:20;17.30;99.90
2723;DHT22;1369;53.216;10.396;2023-07-29T02:50:46;17.30;99.90
2723;DHT22;1369;53.216;10.396;2023-07-29T02:53:12;17.30;99.90
2723;DHT22;1369;53.216;10.396;2023-07-29T02:55:40;17.20;99.90
2723;DHT22;1369;53.216;10.396;2023-07-29T02:58:06;17.20;99.90
2723;DHT22;1369;53.216;10.396;2023-07-29T03:00:32;17.20;99.90
2723;DHT22;1369;53.216;10.396;2023-07-29T03:02:58;17.20;99.90
2723;DHT22;1369;53.216;10.396;2023-07-29T03:05:26;17.20;99.90
2723;DHT22;1369;53.216;10.396;2023-07-29T03:07:52;17.10;99.90
2723;DHT22;1369;53.216;10.396;2023-07-29T03:10:18;17.10;99.90
2723;DHT22;1369;53.216;10.396;2023-07-29T03:12:43;17.10;99.90
2723;DHT22;1369;53.216;10.396;2023-07-29T03:15:09;17.10;99.90
2723;DHT22;1369;53.216;10.396;2023-07-29T03:17:34;17.00;99.90
2723;DHT22;1369;53.216;10.396;2023-07-29T03:20:00;17.00;99.90
2723;DHT22;1369;53.216;10.396;2023-07-29T03:22:26;17.00;99.90
2723;DHT22;1369;53.216;10.396;2023-07-29T03:24:51;17.00;99.90
2723;DHT22;1369;53.216;10.396;2023-07-29T03:27:17;17.00;99.90
2723;DHT22;1369;53.216;10.396;2023-07-29T03:29:42;17.00;99.90
2723;DHT22;1369;53.216;10.396;2023-07-29T03:32:08;17.00;99.90
2723;DHT22;1369;53.216;10.396;2023-07-29T03:34:34;17.00;99.90
2723;DHT22;1369;53.216;10.396;2023-07-29T03:37:00;17.10;99.90
2723;DHT22;1369;53.216;10.396;2023-07-29T03:39:26;17.20;99.90
2723;DHT22;1369;53.216;10.396;2023-07-29T03:41:52;17.20;99.90
2723;DHT22;1369;53.216;10.396;2023-07-29T03:44:17;17.30;99.90
2723;DHT22;1369;53.216;10.396;2023-07-29T03:46:44;17.30;99.90
2723;DHT22;1369;53.216;10.396;2023-07-29T03:49:10;17.30;99.90
2723;DHT22;1369;53.216;10.396;2023-07-29T03:51:36;17.40;99.90
2723;DHT22;1369;53.216;10.396;2023-07-29T03:54:01;17.40;99.90
2723;DHT22;1369;53.216;10.396;2023-07-29T03:56:27;17.40;99.90
2723;DHT22;1369;53.216;10.396;2023-07-29T03:58:52;17.40;99.90
2723;DHT22;1369;53.216;10.396;2023-07-29T04:01:19;17.40;99.90
2723;DHT22;1369;53.216;10.396;2023-07-29T04:03:47;17.40;99.90
2723;DHT22;1369;53.216;10.396;2023-07-29T04:06:12;17.30;99.90
2723;DHT22;1369;53.216;10.396;2023-07-29T04:08:38;17.30;99.90
2723;DHT22;1369;53.216;10.396;2023-07-29T04:11:04;17.30;99.90
2723;DHT22;1369;53.216;10.396;2023-07-29T04:13:29;17.30;99.90
2723;DHT22;1369;53.216;10.396;2023-07-29T04:15:55;17.30;99.90
2723;DHT22;1369;53.216;10.396;2023-07-29T04:18:20;17.30;99.90
2723;DHT22;1369;53.216;10.396;2023-07-29T04:20:46;17.30;99.90
2723;DHT22;1369;53.216;10.396;2023-07-29T04:23:11;17.40;99.90
2723;DHT22;1369;53.216;10.396;2023-07-29T04:25:37;17.40;99.90
2723;DHT22;1369;53.216;10.396;2023-07-29T04:28:02;17.40;99.90
2723;DHT22;1369;53.216;10.396;2023-07-29T04:30:30;17.50;99.90
2723;DHT22;1369;53.216;10.396;2023-07-29T04:32:55;17.50;99.90
2723;DHT22;1369;53.216;10.396;2023-07-29T04:35:21;17.60;99.90
2723;DHT22;1369;53.216;10.396;2023-07-29T04:37:46;17.60;99.90
2723;DHT22;1369;53.216;10.396;2023-07-29T04:40:13;17.70;99.90
2723;DHT22;1369;53.216;10.396;2023-07-29T04:42:39;17.80;99.90
2723;DHT22;1369;53.216;10.396;2023-07-29T04:45:05;17.90;99.90
2723;DHT22;1369;53.216;10.396;2023-07-29T04:47:31;17.90;99.90
2723;DHT22;1369;53.216;10.396;2023-07-29T04:49:56;18.00;99.90
2723;DHT22;1369;53.216;10.396;2023-07-29T04:52:22;18.20;99.90
2723;DHT22;1369;53.216;10.396;2023-07-29T04:54:47;18.30;99.90
2723;DHT22;1369;53.216;10.396;2023-07-29T04:57:13;18.50;99.90
2723;DHT22;1369;53.216;10.396;2023-07-29T04:59:38;18.70;99.90
2723;DHT22;1369;53.216;10.396;2023-07-29T05:02:04;18.70;99.90
2723;DHT22;1369;53.216;10.396;2023-07-29T05:04:30;18.80;99.90
2723;DHT22;1369;53.216;10.396;2023-07-29T05:06:55;18.90;99.90
2723;DHT22;1369;53.216;10.396;2023-07-29T05:09:21;19.00;99.90
2723;DHT22;1369;53.216;10.396;2023-07-29T05:11:47;19.00;99.90
2723;DHT22;1369;53.216;10.396;2023-07-29T05:14:15;19.10;99.90
2723;DHT22;1369;53.216;10.396;2023-07-29T05:16:40;19.20;99.90
2723;DHT22;1369;53.216;10.396;2023-07-29T05:19:06;19.20;99.90
2723;DHT22;1369;53.216;10.396;2023-07-29T05:21:32;19.10;99.90
2723;DHT22;1369;53.216;10.396;2023-07-29T05:23:57;19.10;99.90
2723;DHT22;1369;53.216;10.396;2023-07-29T05:26:23;19.10;99.90
2723;DHT22;1369;53.216;10.396;2023-07-29T05:28:49;19.10;99.90
2723;DHT22;1369;53.216;10.396;2023-07-29T05:31:14;19.10;99.90
2723;DHT22;1369;53.216;10.396;2023-07-29T05:33:40;19.20;99.90
2723;DHT22;1369;53.216;10.396;2023-07-29T05:36:06;19.20;99.90
2723;DHT22;1369;53.216;10.396;2023-07-29T05:38:31;19.20;99.90
2723;DHT22;1369;53.216;10.396;2023-07-29T05:40:57;19.20;99.90
2723;DHT22;1369;53.216;10.396;2023-07-29T05:43:24;19.20;99.90
2723;DHT22;1369;53.216;10.396;2023-07-29T05:45:50;19.30;99.90
2723;DHT22;1369;53.216;10.396;2023-07-29T05:48:16;19.40;99.90
2723;DHT22;1369;53.216;10.396;2023-07-29T05:50:42;19.50;99.90
2723;DHT22;1369;53.216;10.396;2023-07-29T05:53:07;19.60;99.90
2723;DHT22;1369;53.216;10.396;2023-07-29T05:55:33;19.70;99.90
2723;DHT22;1369;53.216;10.396;2023-07-29T05:57:58;19.80;99.90
2723;DHT22;1369;53.216;10.396;2023-07-29T06:00:24;19.90;99.90
2723;DHT22;1369;53.216;10.396;2023-07-29T06:02:50;19.90;99.90
2723;DHT22;1369;53.216;10.396;2023-07-29T06:05:15;19.90;99.90
2723;DHT22;1369;53.216;10.396;2023-07-29T06:07:41;20.10;99.90
2723;DHT22;1369;53.216;10.396;2023-07-29T06:10:14;20.30;99.90
2723;DHT22;1369;53.216;10.396;2023-07-29T06:12:39;20.50;99.90
2723;DHT22;1369;53.216;10.396;2023-07-29T06:15:05;20.80;99.90
2723;DHT22;1369;53.216;10.396;2023-07-29T06:17:33;21.00;99.90
2723;DHT22;1369;53.216;10.396;2023-07-29T06:19:59;21.10;99.90
2723;DHT22;1369;53.216;10.396;2023-07-29T06:22:25;21.20;99.90
2723;DHT22;1369;53.216;10.396;2023-07-29T06:24:50;21.20;99.90
2723;DHT22;1369;53.216;10.396;2023-07-29T06:27:16;21.20;99.90
2723;DHT22;1369;53.216;10.396;2023-07-29T06:29:41;21.30;99.90
2723;DHT22;1369;53.216;10.396;2023-07-29T06:32:07;21.40;99.90
2723;DHT22;1369;53.216;10.396;2023-07-29T06:34:32;21.40;99.90
2723;DHT22;1369;53.216;10.396;2023-07-29T06:36:58;21.30;99.90
2723;DHT22;1369;53.216;10.396;2023-07-29T06:39:24;21.30;99.90
2723;DHT22;1369;53.216;10.396;2023-07-29T06:41:49;21.50;99.90
2723;DHT22;1369;53.216;10.396;2023-07-29T06:44:15;21.50;99.90
2723;DHT22;1369;53.216;10.396;2023-07-29T06:46:41;21.60;99.90
2723;DHT22;1369;53.216;10.396;2023-07-29T06:49:06;21.70;99.90
2723;DHT22;1369;53.216;10.396;2023-07-29T06:51:32;21.80;99.90
2723;DHT22;1369;53.216;10.396;2023-07-29T06:54:00;22.00;99.90
2723;DHT22;1369;53.216;10.396;2023-07-29T06:56:29;22.10;99.90
2723;DHT22;1369;53.216;10.396;2023-07-29T06:58:55;22.10;99.90
2723;DHT22;1369;53.216;10.396;2023-07-29T07:01:20;22.10;99.90
2723;DHT22;1369;53.216;10.396;2023-07-29T07:03:46;22.00;99.90
2723;DHT22;1369;53.216;10.396;2023-07-29T07:06:12;22.00;99.90
2723;DHT22;1369;53.216;10.396;2023-07-29T07:08:37;22.10;99.90
2723;DHT22;1369;53.216;10.396;2023-07-29T07:11:03;22.30;99.90
2723;DHT22;1369;53.216;10.396;2023-07-29T07:13:28;22.70;99.90
2723;DHT22;1369;53.216;10.396;2023-07-29T07:15:56;23.10;99.90
2723;DHT22;1369;53.216;10.396;2023-07-29T07:18:22;23.30;99.90
2723;DHT22;1369;53.216;10.396;2023-07-29T07:20:49;23.50;99.90
2723;DHT22;1369;53.216;10.396;2023-07-29T07:23:16;23.60;99.90
2723;DHT22;1369;53.216;10.396;2023-07-29T07:25:41;23.60;99.90
2723;DHT22;1369;53.216;10.396;2023-07-29T07:28:08;23.60;99.90
2723;DHT22;1369;53.216;10.396;2023-07-29T07:30:34;23.50;99.90
2723;DHT22;1369;53.216;10.396;2023-07-29T07:33:00;23.30;99.90
2723;DHT22;1369;53.216;10.396;2023-07-29T07:35:26;23.00;99.90
2723;DHT22;1369;53.216;10.396;2023-07-29T07:37:52;22.80;99.90
2723;DHT22;1369;53.216;10.396;2023-07-29T07:40:18;22.60;99.90
2723;DHT22;1369;53.216;10.396;2023-07-29T07:42:43;22.40;99.90
2723;DHT22;1369;53.216;10.396;2023-07-29T07:45:09;22.30;99.90
2723;DHT22;1369;53.216;10.396;2023-07-29T07:47:35;22.30;99.90
2723;DHT22;1369;53.216;10.396;2023-07-29T07:50:00;22.10;99.90
2723;DHT22;1369;53.216;10.396;2023-07-29T07:52:26;22.30;99.90
2723;DHT22;1369;53.216;10.396;2023-07-29T07:54:55;22.50;99.90
2723;DHT22;1369;53.216;10.396;2023-07-29T07:57:21;22.70;99.90
2723;DHT22;1369;53.216;10.396;2023-07-29T07:59:47;22.70;99.90
2723;DHT22;1369;53.216;10.396;2023-07-29T08:02:13;22.80;99.90
2723;DHT22;1369;53.216;10.396;2023-07-29T08:04:38;22.80;99.90
2723;DHT22;1369;53.216;10.396;2023-07-29T08:07:04;22.80;99.90
2723;DHT22;1369;53.216;10.396;2023-07-29T08:09:30;22.70;99.90
2723;DHT22;1369;53.216;10.396;2023-07-29T08:11:56;22.60;99.90
2723;DHT22;1369;53.216;10.396;2023-07-29T08:14:22;22.50;99.90
2723;DHT22;1369;53.216;10.396;2023-07-29T08:16:47;22.50;99.90
2723;DHT22;1369;53.216;10.396;2023-07-29T08:19:13;22.60;99.90
2723;DHT22;1369;53.216;10.396;2023-07-29T08:21:39;22.80;99.90
2723;DHT22;1369;53.216;10.396;2023-07-29T08:24:04;23.00;99.90
2723;DHT22;1369;53.216;10.396;2023-07-29T08:26:32;23.10;99.90
2723;DHT22;1369;53.216;10.396;2023-07-29T08:28:57;23.10;99.90
2723;DHT22;1369;53.216;10.396;2023-07-29T08:31:23;23.40;99.90
2723;DHT22;1369;53.216;10.396;2023-07-29T08:33:49;23.70;99.90
2723;DHT22;1369;53.216;10.396;2023-07-29T08:36:14;23.80;99.90
2723;DHT22;1369;53.216;10.396;2023-07-29T08:38:40;23.90;99.90
2723;DHT22;1369;53.216;10.396;2023-07-29T08:42:12;23.70;99.90
2723;DHT22;1369;53.216;10.396;2023-07-29T08:44:09;23.50;99.90
2723;DHT22;1369;53.216;10.396;2023-07-29T08:46:38;23.30;99.90
2723;DHT22;1369;53.216;10.396;2023-07-29T08:49:05;23.30;99.90
2723;DHT22;1369;53.216;10.396;2023-07-29T08:51:31;23.30;99.90
2723;DHT22;1369;53.216;10.396;2023-07-29T08:53:58;23.30;99.90
2723;DHT22;1369;53.216;10.396;2023-07-29T08:56:24;23.20;99.90
2723;DHT22;1369;53.216;10.396;2023-07-29T08:58:51;23.00;99.90
2723;DHT22;1369;53.216;10.396;2023-07-29T09:01:19;22.70;99.90
2723;DHT22;1369;53.216;10.396;2023-07-29T09:03:45;22.50;99.90
2723;DHT22;1369;53.216;10.396;2023-07-29T09:06:12;22.40;99.90
2723;DHT22;1369;53.216;10.396;2023-07-29T09:08:39;22.30;99.90
2723;DHT22;1369;53.216;10.396;2023-07-29T09:11:05;22.10;99.90
2723;DHT22;1369;53.216;10.396;2023-07-29T09:13:31;22.10;99.90
2723;DHT22;1369;53.216;10.396;2023-07-29T09:15:57;22.10;99.90
2723;DHT22;1369;53.216;10.396;2023-07-29T09:18:26;22.00;99.90
2723;DHT22;1369;53.216;10.396;2023-07-29T09:20:53;21.90;99.90
2723;DHT22;1369;53.216;10.396;2023-07-29T09:23:18;21.80;99.90
2723;DHT22;1369;53.216;10.396;2023-07-29T09:25:46;21.60;99.90
2723;DHT22;1369;53.216;10.396;2023-07-29T09:28:14;21.40;99.90
2723;DHT22;1369;53.216;10.396;2023-07-29T09:30:45;21.30;99.90
2723;DHT22;1369;53.216;10.396;2023-07-29T09:33:11;21.10;99.90
2723;DHT22;1369;53.216;10.396;2023-07-29T09:35:37;21.00;99.90
2723;DHT22;1369;53.216;10.396;2023-07-29T09:38:04;20.80;99.90
2723;DHT22;1369;53.216;10.396;2023-07-29T09:40:37;20.70;99.90
2723;DHT22;1369;53.216;10.396;2023-07-29T09:43:04;20.60;99.90
2723;DHT22;1369;53.216;10.396;2023-07-29T09:45:33;20.50;99.90
2723;DHT22;1369;53.216;10.396;2023-07-29T09:47:59;20.50;99.90
2723;DHT22;1369;53.216;10.396;2023-07-29T09:50:26;20.40;99.90
2723;DHT22;1369;53.216;10.396;2023-07-29T09:52:53;20.40;99.90
2723;DHT22;1369;53.216;10.396;2023-07-29T09:55:21;20.50;99.90
2723;DHT22;1369;53.216;10.396;2023-07-29T09:57:56;20.70;99.90
2723;DHT22;1369;53.216;10.396;2023-07-29T10:00:23;20.90;99.90
2723;DHT22;1369;53.216;10.396;2023-07-29T10:02:49;21.20;99.90
2723;DHT22;1369;53.216;10.396;2023-07-29T10:05:16;21.50;99.90
2723;DHT22;1369;53.216;10.396;2023-07-29T10:07:42;21.80;99.90
2723;DHT22;1369;53.216;10.396;2023-07-29T10:10:08;21.90;99.90
2723;DHT22;1369;53.216;10.396;2023-07-29T10:12:34;21.90;99.90
2723;DHT22;1369;53.216;10.396;2023-07-29T10:15:03;21.80;99.90
2723;DHT22;1369;53.216;10.396;2023-07-29T10:17:30;21.70;99.90
2723;DHT22;1369;53.216;10.396;2023-07-29T10:19:57;21.70;99.90
2723;DHT22;1369;53.216;10.396;2023-07-29T10:22:28;21.70;99.90
2723;DHT22;1369;53.216;10.396;2023-07-29T10:25:24;21.70;99.90
2723;DHT22;1369;53.216;10.396;2023-07-29T10:28:05;21.80;99.90
2723;DHT22;1369;53.216;10.396;2023-07-29T10:30:31;22.00;99.90
2723;DHT22;1369;53.216;10.396;2023-07-29T10:32:59;22.20;99.90
2723;DHT22;1369;53.216;10.396;2023-07-29T10:35:27;22.60;99.90
2723;DHT22;1369;53.216;10.396;2023-07-29T10:37:53;22.80;99.90
2723;DHT22;1369;53.216;10.396;2023-07-29T10:40:19;23.00;99.90
2723;DHT22;1369;53.216;10.396;2023-07-29T10:43:02;23.20;99.90
2723;DHT22;1369;53.216;10.396;2023-07-29T10:45:37;23.40;99.90
2723;DHT22;1369;53.216;10.396;2023-07-29T10:51:37;23.80;99.90
2723;DHT22;1369;53.216;10.396;2023-07-29T10:54:11;23.90;99.90
2723;DHT22;1369;53.216;10.396;2023-07-29T10:56:41;23.90;99.90
2723;DHT22;1369;53.216;10.396;2023-07-29T11:01:44;23.80;99.90
2723;DHT22;1369;53.216;10.396;2023-07-29T11:20:20;24.10;99.90
2723;DHT22;1369;53.216;10.396;2023-07-29T11:22:47;24.00;99.90
2723;DHT22;1369;53.216;10.396;2023-07-29T11:25:14;24.00;99.90
2723;DHT22;1369;53.216;10.396;2023-07-29T11:27:40;24.10;99.90
2723;DHT22;1369;53.216;10.396;2023-07-29T11:30:08;24.10;99.90
2723;DHT22;1369;53.216;10.396;2023-07-29T11:32:35;24.10;99.90
2723;DHT22;1369;53.216;10.396;2023-07-29T11:37:34;24.00;99.90
2723;DHT22;1369;53.216;10.396;2023-07-29T11:40:00;24.10;99.90
2723;DHT22;1369;53.216;10.396;2023-07-29T11:42:26;24.10;99.90
2723;DHT22;1369;53.216;10.396;2023-07-29T11:44:55;24.30;99.90
2723;DHT22;1369;53.216;10.396;2023-07-29T11:47:21;24.10;99.90
2723;DHT22;1369;53.216;10.396;2023-07-29T11:49:47;24.10;99.90
2723;DHT22;1369;53.216;10.396;2023-07-29T11:52:13;23.90;99.90
2723;DHT22;1369;53.216;10.396;2023-07-29T11:54:39;23.80;99.90
2723;DHT22;1369;53.216;10.396;2023-07-29T11:57:09;24.00;99.90
2723;DHT22;1369;53.216;10.396;2023-07-29T11:59:39;24.10;99.90
2723;DHT22;1369;53.216;10.396;2023-07-29T12:02:12;24.20;99.90
2723;DHT22;1369;53.216;10.396;2023-07-29T12:04:39;24.30;99.90
2723;DHT22;1369;53.216;10.396;2023-07-29T12:07:07;24.40;99.90
2723;DHT22;1369;53.216;10.396;2023-07-29T12:09:34;24.30;99.90
2723;DHT22;1369;53.216;10.396;2023-07-29T12:12:01;24.40;99.90
2723;DHT22;1369;53.216;10.396;2023-07-29T12:14:28;24.50;99.90
2723;DHT22;1369;53.216;10.396;2023-07-29T12:16:54;24.50;99.90
2723;DHT22;1369;53.216;10.396;2023-07-29T12:19:20;24.70;99.90
2723;DHT22;1369;53.216;10.396;2023-07-29T12:21:48;24.90;99.90
2723;DHT22;1369;53.216;10.396;2023-07-29T12:24:14;25.00;99.90
2723;DHT22;1369;53.216;10.396;2023-07-29T12:26:40;25.00;99.90
2723;DHT22;1369;53.216;10.396;2023-07-29T12:29:18;24.90;99.90
2723;DHT22;1369;53.216;10.396;2023-07-29T12:31:49;24.70;99.90
2723;DHT22;1369;53.216;10.396;2023-07-29T12:34:21;24.70;99.90
2723;DHT22;1369;53.216;10.396;2023-07-29T12:36:49;24.80;99.90
2723;DHT22;1369;53.216;10.396;2023-07-29T12:39:32;25.00;99.90
2723;DHT22;1369;53.216;10.396;2023-07-29T12:41:59;25.10;99.90
2723;DHT22;1369;53.216;10.396;2023-07-29T12:44:30;25.10;99.90
2723;DHT22;1369;53.216;10.396;2023-07-29T12:46:56;25.10;99.90
2723;DHT22;1369;53.216;10.396;2023-07-29T12:49:21;25.10;99.90
2723;DHT22;1369;53.216;10.396;2023-07-29T12:51:48;25.10;99.90
2723;DHT22;1369;53.216;10.396;2023-07-29T12:54:13;25.10;99.90
2723;DHT22;1369;53.216;10.396;2023-07-29T12:56:39;25.20;99.90
2723;DHT22;1369;53.216;10.396;2023-07-29T12:59:05;25.30;99.90
2723;DHT22;1369;53.216;10.396;2023-07-29T13:01:31;25.40;99.90
2723;DHT22;1369;53.216;10.396;2023-07-29T13:03:57;25.30;99.90
2723;DHT22;1369;53.216;10.396;2023-07-29T13:06:23;25.20;99.90
2723;DHT22;1369;53.216;10.396;2023-07-29T13:08:49;25.00;99.90
2723;DHT22;1369;53.216;10.396;2023-07-29T13:11:15;24.80;99.90
2723;DHT22;1369;53.216;10.396;2023-07-29T13:13:41;24.70;99.90
2723;DHT22;1369;53.216;10.396;2023-07-29T13:16:07;24.70;99.90
2723;DHT22;1369;53.216;10.396;2023-07-29T13:18:33;24.90;99.90
2723;DHT22;1369;53.216;10.396;2023-07-29T13:20:59;24.90;99.90
2723;DHT22;1369;53.216;10.396;2023-07-29T13:23:26;25.00;99.90
2723;DHT22;1369;53.216;10.396;2023-07-29T13:25:52;25.00;99.90
2723;DHT22;1369;53.216;10.396;2023-07-29T13:28:18;25.00;99.90
2723;DHT22;1369;53.216;10.396;2023-07-29T13:30:44;25.00;99.90
2723;DHT22;1369;53.216;10.396;2023-07-29T13:33:10;24.90;99.90
2723;DHT22;1369;53.216;10.396;2023-07-29T13:35:36;24.80;99.90
2723;DHT22;1369;53.216;10.396;2023-07-29T13:38:01;24.70;99.90
2723;DHT22;1369;53.216;10.396;2023-07-29T13:40:27;24.70;99.90
2723;DHT22;1369;53.216;10.396;2023-07-29T13:42:54;24.80;99.90
2723;DHT22;1369;53.216;10.396;2023-07-29T13:45:21;24.70;99.90
2723;DHT22;1369;53.216;10.396;2023-07-29T13:47:48;24.80;99.90
2723;DHT22;1369;53.216;10.396;2023-07-29T13:50:14;24.70;99.90
2723;DHT22;1369;53.216;10.396;2023-07-29T13:52:39;24.60;99.90
2723;DHT22;1369;53.216;10.396;2023-07-29T13:55:05;24.60;99.90
2723;DHT22;1369;53.216;10.396;2023-07-29T13:57:32;24.70;99.90
2723;DHT22;1369;53.216;10.396;2023-07-29T13:59:58;24.90;99.90
2723;DHT22;1369;53.216;10.396;2023-07-29T14:02:24;24.90;99.90
2723;DHT22;1369;53.216;10.396;2023-07-29T14:04:53;24.90;99.90
2723;DHT22;1369;53.216;10.396;2023-07-29T14:07:19;24.90;99.90
2723;DHT22;1369;53.216;10.396;2023-07-29T14:09:45;24.70;99.90
2723;DHT22;1369;53.216;10.396;2023-07-29T14:12:10;24.60;99.90
2723;DHT22;1369;53.216;10.396;2023-07-29T14:14:38;24.60;99.90
2723;DHT22;1369;53.216;10.396;2023-07-29T14:17:04;24.70;99.90
2723;DHT22;1369;53.216;10.396;2023-07-29T14:19:31;24.80;99.90
2723;DHT22;1369;53.216;10.396;2023-07-29T14:21:56;24.90;99.90
2723;DHT22;1369;53.216;10.396;2023-07-29T14:24:22;25.00;99.90
2723;DHT22;1369;53.216;10.396;2023-07-29T14:26:49;25.10;99.90
2723;DHT22;1369;53.216;10.396;2023-07-29T14:29:14;25.10;99.90
2723;DHT22;1369;53.216;10.396;2023-07-29T14:31:42;25.20;99.90
2723;DHT22;1369;53.216;10.396;2023-07-29T14:34:08;25.20;99.90
2723;DHT22;1369;53.216;10.396;2023-07-29T14:36:34;25.20;99.90
2723;DHT22;1369;53.216;10.396;2023-07-29T14:39:00;25.30;99.90
2723;DHT22;1369;53.216;10.396;2023-07-29T14:41:27;25.30;99.90
2723;DHT22;1369;53.216;10.396;2023-07-29T14:43:52;25.20;99.90
2723;DHT22;1369;53.216;10.396;2023-07-29T14:46:18;25.20;99.90
2723;DHT22;1369;53.216;10.396;2023-07-29T14:48:43;25.20;99.90
2723;DHT22;1369;53.216;10.396;2023-07-29T14:51:11;25.10;99.90
2723;DHT22;1369;53.216;10.396;2023-07-29T14:53:37;25.10;99.90
2723;DHT22;1369;53.216;10.396;2023-07-29T14:56:02;25.00;99.90
2723;DHT22;1369;53.216;10.396;2023-07-29T14:58:28;25.00;99.90
2723;DHT22;1369;53.216;10.396;2023-07-29T15:00:54;25.00;99.90
2723;DHT22;1369;53.216;10.396;2023-07-29T15:03:20;25.00;99.90
2723;DHT22;1369;53.216;10.396;2023-07-29T15:05:46;24.90;99.90
2723;DHT22;1369;53.216;10.396;2023-07-29T15:08:11;24.90;99.90
2723;DHT22;1369;53.216;10.396;2023-07-29T15:10:37;24.90;99.90
2723;DHT22;1369;53.216;10.396;2023-07-29T15:13:03;24.90;99.90
2723;DHT22;1369;53.216;10.396;2023-07-29T15:15:29;24.90;99.90
2723;DHT22;1369;53.216;10.396;2023-07-29T15:17:55;24.80;99.90
2723;DHT22;1369;53.216;10.396;2023-07-29T15:20:22;24.90;99.90
2723;DHT22;1369;53.216;10.396;2023-07-29T15:22:48;24.80;99.90
2723;DHT22;1369;53.216;10.396;2023-07-29T15:25:13;24.80;99.90
2723;DHT22;1369;53.216;10.396;2023-07-29T15:27:39;24.70;99.90
2723;DHT22;1369;53.216;10.396;2023-07-29T15:30:06;24.80;99.90
2723;DHT22;1369;53.216;10.396;2023-07-29T15:32:32;24.70;99.90
2723;DHT22;1369;53.216;10.396;2023-07-29T15:34:58;24.70;99.90
2723;DHT22;1369;53.216;10.396;2023-07-29T15:37:27;24.70;99.90
2723;DHT22;1369;53.216;10.396;2023-07-29T15:39:53;24.70;99.90
2723;DHT22;1369;53.216;10.396;2023-07-29T15:42:19;24.70;99.90
2723;DHT22;1369;53.216;10.396;2023-07-29T15:44:45;24.60;99.90
2723;DHT22;1369;53.216;10.396;2023-07-29T15:47:11;24.60;99.90
2723;DHT22;1369;53.216;10.396;2023-07-29T15:49:41;24.60;99.90
2723;DHT22;1369;53.216;10.396;2023-07-29T15:52:07;24.50;99.90
2723;DHT22;1369;53.216;10.396;2023-07-29T15:54:35;24.50;99.90
2723;DHT22;1369;53.216;10.396;2023-07-29T15:57:01;24.50;99.90
2723;DHT22;1369;53.216;10.396;2023-07-29T15:59:26;24.50;99.90
2723;DHT22;1369;53.216;10.396;2023-07-29T16:01:52;24.50;99.90
2723;DHT22;1369;53.216;10.396;2023-07-29T16:04:18;24.50;99.90
2723;DHT22;1369;53.216;10.396;2023-07-29T16:06:43;24.50;99.90
2723;DHT22;1369;53.216;10.396;2023-07-29T16:09:09;24.40;99.90
2723;DHT22;1369;53.216;10.396;2023-07-29T16:11:35;24.40;99.90